Time;durP1;ratioP1;P1;durP2;ratioP2;P2;SDS_P1;SDS_P2;PMS_P1;PMS_P2;Temp;Humidity;BMP_temperature;BMP_pressure;BME280_temperature;BME280_humidity;BME280_pressure;Samples;Min_cycle;Max_cycle;Signal;HPM_P1;HPM_P2
2022/09/15 00:01:06;;;;;;;16.73;8.68;;;;;;;12.55;94.65;100635.44;5007700;28;20245;-78
2022/09/15 00:03:32;;;;;;;16.42;8.80;;;;;;;12.55;95.28;100635.44;5005430;28;20095;-78
2022/09/15 00:05:57;;;;;;;20.92;10.15;;;;;;;12.58;95.37;100635.16;5007021;28;20050;-77
2022/09/15 00:08:23;;;;;;;19.17;8.93;;;;;;;12.58;95.62;100629.72;5005647;28;20037;-78
2022/09/15 00:10:55;;;;;;;17.42;9.82;;;;;;;12.58;95.49;100629.72;5007068;28;20041;-78
2022/09/15 00:13:21;;;;;;;15.75;9.95;;;;;;;12.55;95.94;100630.00;5003711;28;20037;-78
2022/09/15 00:15:47;;;;;;;15.88;9.98;;;;;;;12.54;95.66;100631.81;5007925;28;20097;-77
2022/09/15 00:18:13;;;;;;;13.38;8.38;;;;;;;12.56;95.64;100627.13;5006059;28;20390;-78
2022/09/15 00:20:41;;;;;;;16.63;9.75;;;;;;;12.57;95.91;100630.72;5009357;28;20094;-79
2022/09/15 00:23:08;;;;;;;24.35;9.98;;;;;;;12.58;95.86;100618.78;4991702;28;20396;-78
2022/09/15 00:25:33;;;;;;;23.83;10.38;;;;;;;12.58;96.10;100626.97;5021304;28;20681;-78
2022/09/15 00:27:58;;;;;;;16.48;10.10;;;;;;;12.60;96.04;100627.72;5004001;28;20192;-77
2022/09/15 00:30:24;;;;;;;19.58;11.38;;;;;;;12.61;96.90;100624.88;5006889;28;20057;-77
2022/09/15 00:32:49;;;;;;;29.30;12.85;;;;;;;12.61;97.18;100613.94;5005317;28;20196;-77
2022/09/15 00:35:14;;;;;;;18.27;10.75;;;;;;;12.63;96.28;100608.34;4991603;28;20046;-78
2022/09/15 00:37:40;;;;;;;19.17;10.75;;;;;;;12.68;96.93;100608.81;5006430;28;20033;-78
2022/09/15 00:40:05;;;;;;;26.92;11.57;;;;;;;12.72;97.04;100610.28;5017224;28;20053;-78
2022/09/15 00:42:31;;;;;;;21.50;11.77;;;;;;;12.74;97.28;100602.88;5003810;28;20034;-78
2022/09/15 00:44:59;;;;;;;19.98;11.73;;;;;;;12.75;96.85;100608.19;5006728;28;20484;-78
2022/09/15 00:47:28;;;;;;;18.25;11.73;;;;;;;12.79;96.89;100613.38;5003843;28;20109;-78
2022/09/15 00:50:00;;;;;;;21.55;11.65;;;;;;;12.81;96.90;100614.97;5007266;28;20044;-77
2022/09/15 00:52:41;;;;;;;20.80;11.20;;;;;;;12.87;97.04;100610.84;5017530;28;20128;-77
2022/09/15 00:55:30;;;;;;;17.77;10.32;;;;;;;12.89;96.83;100615.19;4975725;28;20049;-78
2022/09/15 00:58:16;;;;;;;20.48;11.45;;;;;;;12.88;96.86;100610.72;4999716;28;20053;-78
2022/09/15 01:00:51;;;;;;;22.27;12.68;;;;;;;12.91;97.07;100620.50;5007563;28;20038;-77
2022/09/15 01:03:17;;;;;;;18.30;10.25;;;;;;;12.92;96.88;100628.59;4989923;28;20131;-78
2022/09/15 01:05:49;;;;;;;24.90;11.63;;;;;;;12.93;97.37;100619.41;5007370;28;20076;-78
2022/09/15 01:08:18;;;;;;;;;;;;;;;13.00;96.34;100625.19;5007925;28;20491;-77
2022/09/15 01:10:45;;;;;;;20.48;10.80;;;;;;;12.99;96.54;100623.44;5006827;28;20395;-78
2022/09/15 01:13:12;;;;;;;21.08;11.98;;;;;;;13.00;97.27;100630.63;5001109;28;20124;-77
2022/09/15 01:15:46;;;;;;;21.30;11.73;;;;;;;13.03;97.98;100635.84;5005204;28;20040;-77
2022/09/15 01:18:36;;;;;;;25.25;11.80;;;;;;;12.98;97.82;100633.50;5002189;28;20045;-78
2022/09/15 01:21:30;;;;;;;21.00;12.35;;;;;;;13.00;98.44;100631.50;5020548;28;20117;-78
2022/09/15 01:24:33;;;;;;;19.38;10.75;;;;;;;13.01;97.72;100622.34;5008968;28;20038;-78
2022/09/15 01:27:31;;;;;;;20.55;10.95;;;;;;;13.02;97.25;100615.00;5002151;28;20069;-78
2022/09/15 01:30:02;;;;;;;17.13;10.13;;;;;;;13.07;96.92;100618.19;5006815;28;20049;-78
2022/09/15 01:35:32;;;;;;;18.50;10.50;;;;;;;13.08;96.63;100614.47;5007666;28;20030;-78
2022/09/15 01:38:07;;;;;;;22.08;11.52;;;;;;;13.08;96.78;100619.06;5007514;28;20034;-78
2022/09/15 01:40:40;;;;;;;20.30;10.85;;;;;;;13.08;96.25;100614.47;5008860;28;20034;-78
2022/09/15 01:43:08;;;;;;;21.90;11.55;;;;;;;13.09;96.78;100616.19;5000054;28;20477;-78
2022/09/15 01:45:37;;;;;;;23.23;11.98;;;;;;;13.09;97.19;100618.06;5006290;28;20022;-77
2022/09/15 01:48:07;;;;;;;20.33;11.57;;;;;;;13.10;96.87;100622.53;5005270;28;20125;-77
2022/09/15 01:50:37;;;;;;;19.30;10.60;;;;;;;13.07;96.68;100611.88;5003697;28;20041;-77
2022/09/15 01:53:10;;;;;;;16.65;11.27;;;;;;;13.06;96.49;100615.63;5005230;28;20494;-77
2022/09/15 01:55:43;;;;;;;20.80;10.88;;;;;;;13.06;96.56;100616.47;5001253;28;20025;-77
2022/09/15 01:58:08;;;;;;;20.60;10.48;;;;;;;13.05;96.41;100611.13;5001106;28;20064;-77
2022/09/15 02:00:40;;;;;;;20.25;10.45;;;;;;;13.01;96.13;100622.34;5002878;28;20117;-78
2022/09/15 02:03:16;;;;;;;19.73;10.70;;;;;;;12.97;96.04;100615.41;4998735;28;20038;-77
2022/09/15 02:05:47;;;;;;;22.65;10.68;;;;;;;12.95;96.18;100619.25;5002350;28;20038;-77
2022/09/15 02:08:23;;;;;;;18.30;10.33;;;;;;;12.93;95.94;100613.94;5007917;28;20119;-77
2022/09/15 02:11:12;;;;;;;26.55;10.80;;;;;;;12.93;96.23;100613.06;5004962;28;20088;-77
2022/09/15 02:13:51;;;;;;;18.27;11.00;;;;;;;12.91;96.28;100602.25;5003857;28;20040;-78
2022/09/15 02:16:20;;;;;;;19.42;10.13;;;;;;;12.91;96.92;100607.72;5006537;28;20315;-77
2022/09/15 02:18:57;;;;;;;15.57;10.50;;;;;;;12.89;96.70;100609.72;5003889;28;20113;-78
2022/09/15 02:21:46;;;;;;;16.95;10.23;;;;;;;12.90;96.34;100611.47;5007459;28;20117;-78
2022/09/15 02:24:18;;;;;;;19.55;10.60;;;;;;;12.91;96.92;100617.78;4985268;28;20042;-78
2022/09/15 02:26:47;;;;;;;19.02;10.43;;;;;;;12.89;96.29;100619.78;5007002;28;20030;-77
2022/09/15 02:29:18;;;;;;;15.90;9.75;;;;;;;12.86;96.17;100618.16;5005845;28;20099;-78
2022/09/15 02:31:44;;;;;;;17.30;10.25;;;;;;;12.80;95.49;100615.13;5009458;28;20040;-77
2022/09/15 02:34:16;;;;;;;14.45;8.90;;;;;;;12.77;95.10;100624.41;5008799;28;20032;-77
2022/09/15 02:36:41;;;;;;;14.77;9.47;;;;;;;12.71;95.11;100614.91;5011522;28;20481;-77
2022/09/15 02:39:11;;;;;;;17.20;9.18;;;;;;;12.65;95.02;100609.09;5006190;28;20296;-77
2022/09/15 02:41:38;;;;;;;14.80;9.48;;;;;;;12.61;94.99;100610.34;5010988;28;20125;-77
2022/09/15 02:44:03;;;;;;;19.85;10.98;;;;;;;12.56;95.26;100605.28;4991453;28;20025;-77
2022/09/15 02:46:29;;;;;;;19.77;10.40;;;;;;;12.52;95.46;100612.00;5009909;28;20353;-77
2022/09/15 02:48:55;;;;;;;20.95;10.50;;;;;;;12.50;95.29;100619.47;5008875;28;20394;-77
2022/09/15 02:51:21;;;;;;;18.20;10.32;;;;;;;12.45;95.07;100611.66;5009032;28;20057;-77
2022/09/15 02:53:47;;;;;;;17.58;10.73;;;;;;;12.41;96.20;100618.38;4990387;28;20505;-78
2022/09/15 02:56:14;;;;;;;18.70;10.55;;;;;;;12.39;95.74;100616.75;5009472;28;20021;-77
2022/09/15 02:58:39;;;;;;;19.80;11.15;;;;;;;12.35;95.65;100607.94;5007468;28;20331;-77
2022/09/15 03:01:06;;;;;;;16.92;10.20;;;;;;;12.33;96.26;100617.28;4989702;28;20104;-78
2022/09/15 03:03:33;;;;;;;19.30;11.57;;;;;;;12.31;96.22;100613.78;5004124;28;20477;-78
2022/09/15 03:06:15;;;;;;;15.65;8.70;;;;;;;12.26;95.57;100611.44;5008946;28;20042;-78
2022/09/15 03:08:48;;;;;;;15.13;9.10;;;;;;;12.21;94.79;100617.28;5008779;28;20045;-77
2022/09/15 03:11:14;;;;;;;23.15;9.52;;;;;;;12.16;95.02;100624.13;4988141;28;20057;-78
2022/09/15 03:13:40;;;;;;;15.27;9.27;;;;;;;12.13;95.66;100625.25;5005212;28;20056;-77
2022/09/15 03:16:11;;;;;;;19.80;10.85;;;;;;;12.13;96.09;100625.25;5015338;28;20049;-78
2022/09/15 03:18:37;;;;;;;16.98;10.95;;;;;;;12.10;96.52;100625.50;5006222;28;20709;-78
2022/09/15 03:21:04;;;;;;;21.95;12.65;;;;;;;12.14;97.26;100628.84;4998000;28;20072;-78
2022/09/15 03:23:30;;;;;;;19.77;11.25;;;;;;;12.16;97.28;100635.88;5008056;28;20033;-78
2022/09/15 03:25:58;;;;;;;18.08;11.63;;;;;;;12.14;97.14;100637.88;5007904;28;20034;-78
2022/09/15 03:28:23;;;;;;;17.65;11.48;;;;;;;12.17;97.72;100640.38;5004730;28;20043;-78
2022/09/15 03:30:48;;;;;;;18.90;11.10;;;;;;;12.19;97.39;100642.97;4991585;28;20183;-78
2022/09/15 03:33:14;;;;;;;17.23;10.27;;;;;;;12.21;97.10;100646.41;4988964;28;20025;-78
2022/09/15 03:35:39;;;;;;;20.70;11.65;;;;;;;12.21;97.14;100646.41;5007379;28;20041;-78
2022/09/15 03:38:05;;;;;;;19.10;11.82;;;;;;;12.29;97.34;100660.28;5008686;28;20042;-78
2022/09/15 03:40:32;;;;;;;18.77;11.18;;;;;;;12.32;97.83;100664.66;5006106;28;20354;-78
2022/09/15 03:42:58;;;;;;;24.70;11.38;;;;;;;12.34;97.69;100666.22;5006295;28;20039;-79
2022/09/15 03:45:23;;;;;;;21.23;12.95;;;;;;;12.37;97.98;100666.00;5005112;28;20075;-79
2022/09/15 03:47:49;;;;;;;23.63;12.45;;;;;;;12.42;98.19;100669.19;4999781;28;20420;-78
2022/09/15 03:50:14;;;;;;;22.63;11.57;;;;;;;12.45;98.00;100670.78;4994005;28;20042;-78
2022/09/15 03:52:39;;;;;;;18.85;11.48;;;;;;;12.47;97.67;100666.97;5007932;28;20038;-78
2022/09/15 03:55:05;;;;;;;18.10;13.15;;;;;;;12.48;98.12;100659.63;5002974;28;20056;-78
2022/09/15 03:57:30;;;;;;;18.90;12.70;;;;;;;12.49;97.88;100662.22;5004248;28;20037;-78
2022/09/15 03:59:56;;;;;;;22.35;12.35;;;;;;;12.52;97.77;100658.38;5008004;28;20046;-78
2022/09/15 04:02:21;;;;;;;19.85;12.00;;;;;;;12.50;97.90;100657.66;5004762;28;20114;-77
2022/09/15 04:04:48;;;;;;;20.45;11.95;;;;;;;12.51;97.58;100660.25;5022699;28;20045;-78
2022/09/15 04:07:13;;;;;;;20.42;11.68;;;;;;;12.49;97.49;100648.59;5009688;28;20101;-78
2022/09/15 04:09:39;;;;;;;19.55;12.18;;;;;;;12.51;97.70;100645.75;4990886;28;20038;-78
2022/09/15 04:12:05;;;;;;;21.33;12.48;;;;;;;12.48;97.92;100644.13;4983589;28;20058;-78
2022/09/15 04:14:31;;;;;;;18.02;11.75;;;;;;;12.49;97.29;100650.44;5007317;28;20624;-78
2022/09/15 04:16:56;;;;;;;23.23;11.73;;;;;;;12.49;97.32;100645.00;5003524;28;20048;-78
2022/09/15 04:19:21;;;;;;;20.40;12.18;;;;;;;12.50;97.17;100644.03;5004430;28;20213;-78
2022/09/15 04:21:47;;;;;;;19.05;11.55;;;;;;;12.50;97.64;100646.75;5003041;28;20062;-78
2022/09/15 04:24:12;;;;;;;22.08;11.88;;;;;;;12.48;97.79;100643.25;5004367;28;20065;-79
2022/09/15 04:26:37;;;;;;;20.70;11.73;;;;;;;12.51;97.77;100640.28;5009137;28;20118;-78
2022/09/15 04:29:09;;;;;;;17.38;11.88;;;;;;;12.51;97.84;100634.84;5004535;28;20113;-78
2022/09/15 04:31:35;;;;;;;18.88;11.80;;;;;;;12.54;97.57;100648.19;5005798;28;20092;-78
2022/09/15 04:34:00;;;;;;;19.95;12.25;;;;;;;12.58;97.37;100646.09;5005325;28;20021;-78
2022/09/15 04:36:27;;;;;;;18.38;10.88;;;;;;;12.57;97.33;100647.94;5007524;28;20045;-78
2022/09/15 04:38:54;;;;;;;20.25;12.05;;;;;;;12.59;97.60;100645.09;5006102;28;20038;-78
2022/09/15 04:41:19;;;;;;;19.02;11.48;;;;;;;12.62;97.36;100647.56;5022069;28;20026;-78
2022/09/15 04:43:45;;;;;;;17.83;11.38;;;;;;;12.63;97.14;100647.41;5005553;28;20500;-78
2022/09/15 04:46:12;;;;;;;20.33;11.65;;;;;;;12.64;97.06;100651.06;4988607;28;20409;-78
2022/09/15 04:48:38;;;;;;;18.88;11.38;;;;;;;12.64;96.91;100649.19;4997443;28;20176;-78
2022/09/15 04:51:09;;;;;;;16.33;11.30;;;;;;;12.66;97.09;100649.03;5002781;28;20038;-78
2022/09/15 04:53:36;;;;;;;16.38;11.05;;;;;;;12.66;96.61;100651.78;5000124;28;20551;-78
2022/09/15 04:56:13;;;;;;;19.90;11.07;;;;;;;12.66;96.87;100658.09;5003020;28;20493;-78
2022/09/15 04:58:40;;;;;;;17.65;11.52;;;;;;;12.66;96.46;100651.78;4997334;28;20524;-77
2022/09/15 05:01:12;;;;;;;18.30;11.18;;;;;;;12.63;96.55;100655.59;5007294;28;20450;-77
2022/09/15 05:03:38;;;;;;;19.10;12.13;;;;;;;12.60;96.73;100647.69;4998638;28;20065;-78
2022/09/15 05:06:09;;;;;;;17.92;10.93;;;;;;;12.59;96.65;100643.25;5007887;28;20030;-78
2022/09/15 05:08:35;;;;;;;19.15;11.27;;;;;;;12.57;96.73;100639.75;5005946;28;20431;-78
2022/09/15 05:11:03;;;;;;;19.83;10.68;;;;;;;12.57;96.63;100645.22;5006250;28;20102;-77
2022/09/15 05:13:29;;;;;;;19.02;11.73;;;;;;;12.53;96.06;100638.28;5004020;28;20038;-77
2022/09/15 05:15:54;;;;;;;16.92;11.45;;;;;;;12.52;96.64;100640.16;5005053;28;20038;-77
2022/09/15 05:18:19;;;;;;;16.45;10.60;;;;;;;12.52;96.55;100636.56;5015411;28;20029;-77
2022/09/15 05:20:45;;;;;;;19.42;12.13;;;;;;;12.51;97.28;100638.41;5007109;28;20406;-78
2022/09/15 05:23:11;;;;;;;16.85;11.68;;;;;;;12.53;97.23;100643.75;5006029;28;20021;-78
2022/09/15 05:25:37;;;;;;;20.67;11.40;;;;;;;12.49;97.73;100640.41;5004942;28;20069;-77
2022/09/15 05:28:03;;;;;;;14.38;10.63;;;;;;;12.51;97.22;100643.03;5004571;28;20054;-77
2022/09/15 05:30:29;;;;;;;16.55;10.80;;;;;;;12.52;97.24;100650.19;5006845;28;20041;-77
2022/09/15 05:32:55;;;;;;;17.77;11.18;;;;;;;12.51;97.03;100664.84;5003278;28;20053;-78
2022/09/15 05:35:22;;;;;;;15.75;11.05;;;;;;;12.49;96.34;100656.75;5006620;28;20362;-77
2022/09/15 05:37:48;;;;;;;15.15;10.30;;;;;;;12.51;96.95;100652.06;5005146;28;20477;-77
2022/09/15 05:40:14;;;;;;;17.10;10.65;;;;;;;12.54;96.46;100652.78;4988454;28;20111;-77
2022/09/15 05:42:39;;;;;;;19.08;11.15;;;;;;;12.58;96.56;100657.00;5001099;28;20511;-77
2022/09/15 05:45:05;;;;;;;19.65;10.55;;;;;;;12.60;96.82;100664.06;4998768;28;20046;-78
2022/09/15 05:47:31;;;;;;;18.02;9.93;;;;;;;12.62;96.39;100664.81;4998747;28;20132;-77
2022/09/15 05:49:56;;;;;;;16.77;10.80;;;;;;;12.65;96.88;100666.41;5004341;28;20133;-77
2022/09/15 05:52:21;;;;;;;16.17;10.60;;;;;;;12.70;96.69;100670.50;5005358;28;20069;-77
2022/09/15 05:54:47;;;;;;;23.80;11.07;;;;;;;12.74;97.25;100671.09;5002319;28;20042;-77
2022/09/15 05:57:13;;;;;;;16.95;11.10;;;;;;;12.75;97.42;100670.09;4998515;28;20084;-77
2022/09/15 05:59:45;;;;;;;18.65;11.10;;;;;;;12.83;97.47;100683.97;5001001;28;20028;-77
2022/09/15 06:02:11;;;;;;;23.45;11.43;;;;;;;12.87;97.29;100685.47;4989250;28;20042;-78
2022/09/15 06:04:36;;;;;;;19.10;12.13;;;;;;;12.93;97.47;100684.94;4988651;28;20145;-77
2022/09/15 06:07:02;;;;;;;18.70;11.32;;;;;;;12.98;97.23;100684.53;5004714;28;20116;-77
2022/09/15 06:09:27;;;;;;;20.23;12.00;;;;;;;13.05;97.37;100691.19;5006582;28;20464;-78
2022/09/15 06:11:52;;;;;;;20.13;12.52;;;;;;;13.10;97.26;100685.34;5008601;28;20115;-78
2022/09/15 06:14:18;;;;;;;23.55;13.23;;;;;;;13.15;97.45;100692.16;5005737;28;20037;-77
2022/09/15 06:16:43;;;;;;;18.58;11.93;;;;;;;13.21;96.95;100690.75;5024117;28;20124;-77
2022/09/15 06:19:09;;;;;;;18.70;10.88;;;;;;;13.24;96.40;100691.41;5006543;28;20412;-78
2022/09/15 06:21:34;;;;;;;16.30;12.27;;;;;;;13.27;96.70;100695.72;5007391;28;20493;-77
2022/09/15 06:24:02;;;;;;;20.17;11.43;;;;;;;13.30;96.35;100695.47;5005682;28;20032;-77
2022/09/15 06:26:28;;;;;;;19.40;11.75;;;;;;;13.34;96.16;100699.69;5007217;28;20440;-77
2022/09/15 06:28:59;;;;;;;18.27;11.57;;;;;;;13.41;96.66;100705.47;5004382;28;20042;-77
2022/09/15 06:31:26;;;;;;;19.90;11.82;;;;;;;13.48;96.38;100703.94;5006775;28;20045;-77
2022/09/15 06:33:54;;;;;;;21.40;12.15;;;;;;;13.54;96.84;100697.94;5006776;28;20041;-77
2022/09/15 06:36:23;;;;;;;19.75;12.00;;;;;;;13.61;96.71;100706.44;5006317;28;20041;-77
2022/09/15 06:38:48;;;;;;;17.45;11.75;;;;;;;13.64;95.79;100708.94;5006935;28;20021;-77
2022/09/15 06:41:14;;;;;;;17.17;10.98;;;;;;;13.68;96.23;100705.78;5015438;28;20037;-77
2022/09/15 06:43:40;;;;;;;19.67;11.90;;;;;;;13.74;95.92;100710.72;4989944;28;20629;-77
2022/09/15 06:46:12;;;;;;;18.23;11.32;;;;;;;13.83;96.04;100722.72;5004293;28;20397;-77
2022/09/15 06:48:38;;;;;;;20.63;11.40;;;;;;;13.87;95.31;100726.03;4989099;28;20056;-77
2022/09/15 06:51:05;;;;;;;14.50;9.43;;;;;;;13.91;95.55;100722.03;5007285;28;20120;-77
2022/09/15 06:53:32;;;;;;;16.77;11.45;;;;;;;13.94;96.01;100721.75;5006750;28;20041;-77
2022/09/15 06:56:06;;;;;;;17.10;10.75;;;;;;;13.94;94.42;100730.84;5005989;28;20040;-77
2022/09/15 06:58:34;;;;;;;16.38;11.20;;;;;;;14.01;94.79;100733.91;5004340;28;20129;-77
2022/09/15 07:01:01;;;;;;;16.95;10.25;;;;;;;14.08;94.92;100735.06;5004068;28;20050;-77
2022/09/15 07:03:27;;;;;;;18.15;10.50;;;;;;;14.18;94.84;100730.53;4989044;28;20497;-77
2022/09/15 07:05:52;;;;;;;16.88;10.55;;;;;;;14.30;95.10;100736.75;5004087;28;20050;-77
2022/09/15 07:08:18;;;;;;;19.23;10.60;;;;;;;14.42;94.48;100735.66;5004146;28;20434;-77
2022/09/15 07:10:46;;;;;;;18.63;11.43;;;;;;;14.49;94.08;100741.47;4999128;28;20385;-77
2022/09/15 07:13:11;;;;;;;14.65;10.90;;;;;;;14.57;94.37;100746.25;4995609;28;20038;-77
2022/09/15 07:15:38;;;;;;;16.50;9.85;;;;;;;14.66;93.65;100742.69;4991184;28;20040;-78
2022/09/15 07:18:04;;;;;;;15.68;10.77;;;;;;;14.71;93.68;100743.13;5007364;28;20068;-77
2022/09/15 07:20:29;;;;;;;16.70;10.75;;;;;;;14.80;93.63;100747.75;4992627;28;20042;-77
2022/09/15 07:22:55;;;;;;;17.75;11.52;;;;;;;14.85;93.70;100747.34;5004194;28;20041;-77
2022/09/15 07:25:20;;;;;;;17.88;9.82;;;;;;;14.96;93.57;100752.69;4992488;28;20125;-77
2022/09/15 07:27:46;;;;;;;18.58;11.13;;;;;;;15.04;93.03;100763.81;4992449;28;20646;-77
2022/09/15 07:30:12;;;;;;;15.38;10.98;;;;;;;15.11;93.32;100750.38;5007471;28;20062;-77
2022/09/15 07:32:38;;;;;;;15.82;10.57;;;;;;;15.16;92.99;100753.59;5007289;28;20481;-77
2022/09/15 07:35:05;;;;;;;14.60;10.13;;;;;;;15.23;92.94;100754.75;5007395;28;20042;-77
2022/09/15 07:37:32;;;;;;;14.45;8.98;;;;;;;15.27;92.01;100751.56;4992241;28;20046;-77
2022/09/15 07:39:57;;;;;;;13.43;9.20;;;;;;;15.32;92.02;100759.34;4989719;28;20178;-77
2022/09/15 07:42:22;;;;;;;14.93;9.32;;;;;;;15.36;92.25;100760.81;5006927;28;20034;-77
2022/09/15 07:44:48;;;;;;;14.68;9.68;;;;;;;15.43;91.74;100767.44;4991979;28;20045;-77
2022/09/15 07:47:13;;;;;;;21.23;10.10;;;;;;;15.48;91.34;100764.25;4991126;28;20038;-78
2022/09/15 07:49:39;;;;;;;13.77;9.80;;;;;;;15.53;91.92;100761.97;4990586;28;20070;-78
2022/09/15 07:52:04;;;;;;;18.13;9.57;;;;;;;15.59;91.59;100764.13;4997850;28;20044;-79
2022/09/15 07:54:30;;;;;;;16.05;9.48;;;;;;;15.59;90.39;100766.00;4999052;28;20026;-78
2022/09/15 07:56:55;;;;;;;12.40;8.77;;;;;;;15.61;90.77;100764.81;5006643;28;20038;-78
2022/09/15 07:59:20;;;;;;;13.40;8.90;;;;;;;15.65;89.94;100769.03;5008954;28;20100;-78
2022/09/15 08:01:46;;;;;;;11.85;7.97;;;;;;;15.69;89.73;100775.97;5011683;28;20091;-78
2022/09/15 08:04:11;;;;;;;14.20;8.80;;;;;;;15.69;89.84;100767.75;5005368;28;20050;-78
2022/09/15 08:06:37;;;;;;;13.77;9.57;;;;;;;15.73;89.00;100779.28;5006833;28;20149;-79
2022/09/15 08:09:02;;;;;;;16.50;8.68;;;;;;;15.80;89.62;100785.91;4991443;28;20184;-78
2022/09/15 08:11:28;;;;;;;11.88;8.38;;;;;;;15.89;89.76;100784.16;5006510;28;20039;-79
2022/09/15 08:13:54;;;;;;;12.57;9.20;;;;;;;15.97;89.49;100790.66;5004208;28;20046;-78
2022/09/15 08:16:21;;;;;;;15.35;8.98;;;;;;;16.07;90.18;100790.63;4990400;28;20018;-79
2022/09/15 08:18:47;;;;;;;15.30;9.52;;;;;;;16.18;89.27;100784.09;5006456;28;20042;-78
2022/09/15 08:21:15;;;;;;;18.75;9.10;;;;;;;16.28;88.70;100780.31;5006787;28;20038;-79
2022/09/15 08:23:42;;;;;;;14.02;8.68;;;;;;;16.36;87.54;100786.94;5025402;28;20042;-79
2022/09/15 08:26:09;;;;;;;13.40;8.68;;;;;;;16.35;87.94;100798.94;4992238;28;20588;-79
2022/09/15 08:28:35;;;;;;;11.73;8.10;;;;;;;16.36;87.81;100795.16;4990966;28;20486;-78
2022/09/15 08:31:03;;;;;;;10.07;7.85;;;;;;;16.41;87.90;100795.59;5006408;28;20052;-78
2022/09/15 08:33:29;;;;;;;13.57;7.82;;;;;;;16.42;87.01;100800.09;4990929;28;20473;-79
2022/09/15 08:35:59;;;;;;;15.15;8.68;;;;;;;16.44;86.62;100809.88;5006348;28;20144;-79
2022/09/15 08:38:24;;;;;;;14.43;8.38;;;;;;;16.35;86.62;100805.28;5005938;28;20066;-78
2022/09/15 08:41:03;;;;;;;12.70;8.35;;;;;;;16.30;86.30;100808.47;4991004;28;20064;-79
2022/09/15 08:43:35;;;;;;;14.60;7.80;;;;;;;16.28;87.30;100809.66;4993888;28;20389;-79
2022/09/15 08:46:08;;;;;;;11.25;7.95;;;;;;;16.30;86.45;100808.47;5010617;28;20041;-79
2022/09/15 08:49:08;;;;;;;16.48;8.38;;;;;;;16.37;87.25;100811.53;4993627;28;20451;-79
2022/09/15 08:51:47;;;;;;;17.80;9.18;;;;;;;16.46;86.53;100815.22;4996903;28;20520;-79
2022/09/15 08:54:21;;;;;;;13.27;8.95;;;;;;;16.48;86.87;100814.06;5007653;28;20042;-78
2022/09/15 08:56:47;;;;;;;17.50;9.75;;;;;;;16.56;86.71;100819.69;4991224;28;20034;-79
2022/09/15 08:59:15;;;;;;;14.00;8.90;;;;;;;16.65;86.08;100828.91;5003757;28;20048;-79
2022/09/15 09:02:02;;;;;;;14.07;9.00;;;;;;;16.83;87.49;100828.97;5005740;28;20046;-78
2022/09/15 09:04:31;;;;;;;15.27;9.68;;;;;;;16.93;85.95;100832.56;4989571;28;20137;-79
2022/09/15 09:07:22;;;;;;;16.83;9.60;;;;;;;17.02;85.89;100828.91;4973149;28;20034;-79
2022/09/15 09:10:18;;;;;;;16.25;8.77;;;;;;;17.12;85.63;100841.72;5005339;28;20052;-78
2022/09/15 09:12:57;;;;;;;16.38;9.52;;;;;;;17.14;84.76;100836.91;4990268;28;20054;-78
2022/09/15 09:15:39;;;;;;;15.27;8.25;;;;;;;17.08;85.03;100847.53;5005548;28;20213;-79
2022/09/15 09:18:20;;;;;;;9.55;7.95;;;;;;;17.11;84.72;100843.56;4990165;28;20042;-79
2022/09/15 09:20:58;;;;;;;17.70;9.77;;;;;;;17.12;84.79;100845.34;4990738;28;20046;-79
2022/09/15 09:23:28;;;;;;;13.00;7.57;;;;;;;17.19;84.52;100846.44;4997147;28;20038;-78
2022/09/15 09:25:55;;;;;;;13.70;7.80;;;;;;;17.30;85.29;100837.13;4990041;28;20115;-78
2022/09/15 09:28:35;;;;;;;13.50;7.68;;;;;;;17.32;84.09;100849.69;5004652;28;20038;-78
2022/09/15 09:31:07;;;;;;;10.32;7.15;;;;;;;17.22;83.09;100840.63;5005230;28;20038;-79
2022/09/15 09:33:54;;;;;;;13.37;6.87;;;;;;;17.19;81.51;100845.56;4989968;28;20482;-79
2022/09/15 09:36:19;;;;;;;9.95;6.50;;;;;;;17.15;82.48;100847.75;4989739;28;20300;-78
2022/09/15 09:38:47;;;;;;;15.43;7.65;;;;;;;17.03;82.50;100849.88;4990312;28;20046;-79
2022/09/15 09:41:34;;;;;;;16.65;7.45;;;;;;;16.91;82.66;100848.31;5005309;28;20070;-78
2022/09/15 09:44:02;;;;;;;9.90;7.13;;;;;;;16.88;83.10;100854.16;5002606;28;20038;-78
2022/09/15 09:46:27;;;;;;;11.23;6.60;;;;;;;16.85;83.89;100848.94;5004916;28;20525;-78
2022/09/15 09:49:03;;;;;;;13.38;6.97;;;;;;;16.77;84.19;100855.19;4989706;28;20125;-78
2022/09/15 09:51:39;;;;;;;11.75;7.75;;;;;;;16.72;84.44;100857.53;5006124;28;20042;-78
2022/09/15 09:54:09;;;;;;;15.25;7.63;;;;;;;16.65;83.63;100853.63;5022751;28;20048;-78
2022/09/15 09:56:35;;;;;;;13.32;8.50;;;;;;;16.60;83.99;100850.47;4989794;28;20066;-78
2022/09/15 09:59:01;;;;;;;12.10;7.30;;;;;;;16.56;84.39;100852.63;4989410;28;20069;-78
2022/09/15 10:01:27;;;;;;;12.70;7.63;;;;;;;16.58;84.83;100845.09;4989898;28;20043;-77
2022/09/15 10:04:18;;;;;;;12.25;7.20;;;;;;;16.58;84.37;100847.84;4989304;28;20065;-78
2022/09/15 10:06:45;;;;;;;14.50;7.90;;;;;;;16.63;84.81;100849.28;5005281;28;20129;-78
2022/09/15 10:09:16;;;;;;;13.50;7.70;;;;;;;16.72;86.13;100854.78;4989548;28;20449;-78
2022/09/15 10:11:48;;;;;;;12.30;7.97;;;;;;;16.76;85.96;100855.34;4989863;28;20042;-79
2022/09/15 10:14:24;;;;;;;11.45;6.80;;;;;;;16.80;85.07;100862.28;4989523;28;20038;-78
2022/09/15 10:16:57;;;;;;;9.90;7.78;;;;;;;16.78;84.82;100858.78;5004625;28;20454;-77
2022/09/15 10:19:23;;;;;;;10.75;6.55;;;;;;;16.78;85.59;100861.53;5003309;28;20120;-78
2022/09/15 10:21:49;;;;;;;11.82;6.32;;;;;;;16.77;84.36;100855.19;5008159;28;20097;-77
2022/09/15 10:24:26;;;;;;;10.70;5.25;;;;;;;16.83;83.19;100859.19;5004760;28;20038;-77
2022/09/15 10:27:05;;;;;;;8.68;4.00;;;;;;;16.90;82.08;100852.09;5004726;28;20390;-79
2022/09/15 10:29:37;;;;;;;7.75;2.80;;;;;;;16.96;80.64;100845.97;4983900;28;20069;-79
2022/09/15 10:32:27;;;;;;;4.72;2.78;;;;;;;17.08;82.08;100839.28;4989518;28;20046;-78
2022/09/15 10:35:10;;;;;;;8.10;2.45;;;;;;;17.13;81.55;100843.44;5024177;28;20121;-78
2022/09/15 10:38:18;;;;;;;6.03;2.80;;;;;;;17.21;80.21;100841.66;5009144;28;20033;-78
2022/09/15 10:40:53;;;;;;;7.88;2.53;;;;;;;17.38;78.49;100847.34;4951425;28;20049;-78
2022/09/15 10:43:37;;;;;;;12.10;2.50;;;;;;;17.38;80.59;100863.84;4966461;28;20398;-78
2022/09/15 10:46:17;;;;;;;7.13;2.53;;;;;;;17.15;80.43;100866.13;4974606;28;20184;-78
2022/09/15 10:48:48;;;;;;;7.18;2.20;;;;;;;16.96;79.30;100889.09;5008242;28;20041;-78
2022/09/15 10:51:31;;;;;;;6.43;1.77;;;;;;;16.69;76.60;100881.63;4992260;28;20070;-78
2022/09/15 10:53:56;;;;;;;6.80;1.30;;;;;;;16.36;75.37;100885.78;4992735;28;20054;-77
2022/09/15 10:56:43;;;;;;;2.80;1.08;;;;;;;16.18;78.41;100882.91;5008067;28;20176;-77
2022/09/15 10:59:14;;;;;;;3.88;1.23;;;;;;;16.11;75.70;100879.03;4992533;28;20100;-78
2022/09/15 11:01:56;;;;;;;4.15;1.10;;;;;;;16.15;78.18;100883.22;4992712;28;20045;-78
2022/09/15 11:04:41;;;;;;;4.60;1.00;;;;;;;16.23;77.03;100873.25;5007527;28;20450;-77
2022/09/15 11:07:26;;;;;;;2.97;1.17;;;;;;;16.57;79.40;100868.09;4992922;28;20472;-78
2022/09/15 11:10:02;;;;;;;4.03;1.27;;;;;;;16.88;76.74;100870.63;5007789;28;20022;-78
2022/09/15 11:12:44;;;;;;;6.97;1.10;;;;;;;17.31;79.65;100869.97;4993602;28;20577;-78
2022/09/15 11:15:19;;;;;;;;;;;;;;;17.69;79.10;100873.47;4993293;28;20122;-78
2022/09/15 11:17:54;;;;;;;4.25;1.00;;;;;;;18.00;76.25;100862.06;4991782;28;19962;-79
2022/09/15 11:20:47;;;;;;;4.53;1.10;;;;;;;18.15;74.08;100857.75;4992960;28;20069;-78
2022/09/15 11:23:27;;;;;;;7.63;0.70;;;;;;;18.31;67.74;100862.50;5017424;28;20072;-78
2022/09/15 11:26:02;;;;;;;4.18;1.30;;;;;;;18.34;65.76;100857.53;5010989;28;20482;-78
2022/09/15 11:28:46;;;;;;;3.40;0.80;;;;;;;18.50;68.95;100855.91;5005428;28;20065;-77
2022/09/15 11:31:15;;;;;;;2.60;0.70;;;;;;;18.69;70.29;100854.84;5007600;28;20038;-79